createdAt,value
2023-01-19T00:00:11.914Z,1005.42
2023-01-19T00:00:37.800Z,1005.62
2023-01-19T00:00:59.933Z,1005.62
2023-01-19T00:01:30.663Z,1005.62
2023-01-19T00:02:03.019Z,1005.72
2023-01-19T00:02:36.210Z,1005.72
2023-01-19T00:03:06.662Z,1005.62
2023-01-19T00:03:38.602Z,1005.62
2023-01-19T00:04:10.873Z,1005.52
2023-01-19T00:04:37.585Z,1005.62
2023-01-19T00:05:16.968Z,1005.62
2023-01-19T00:05:37.753Z,1005.62
2023-01-19T00:06:03.016Z,1005.62
2023-01-19T00:06:34.920Z,1005.62
2023-01-19T00:07:06.555Z,1005.62
2023-01-19T00:07:38.840Z,1005.62
2023-01-19T00:08:10.690Z,1005.62
2023-01-19T00:08:37.468Z,1005.52
2023-01-19T00:09:00.047Z,1005.52
2023-01-19T00:09:31.091Z,1005.52
2023-01-19T00:10:04.493Z,1005.52
2023-01-19T00:10:34.531Z,1005.52
2023-01-19T00:11:07.760Z,1005.52
2023-01-19T00:11:38.542Z,1005.52
2023-01-19T00:12:10.604Z,1005.42
2023-01-19T00:12:38.330Z,1005.32
2023-01-19T00:12:59.085Z,1005.32
2023-01-19T00:13:30.673Z,1005.32
2023-01-19T00:14:03.329Z,1005.72
2023-01-19T00:14:35.277Z,1005.72
2023-01-19T00:15:07.892Z,1005.42
2023-01-19T00:15:40.041Z,1005.42
2023-01-19T00:16:10.457Z,1005.52
2023-01-19T00:16:37.361Z,1005.72
2023-01-19T00:16:59.325Z,1005.72
2023-01-19T00:17:31.486Z,1005.72
2023-01-19T00:18:02.968Z,1005.62
2023-01-19T00:18:34.500Z,1005.62
2023-01-19T00:19:06.682Z,1005.72
2023-01-19T00:19:23.959Z,1005.72
2023-01-19T00:19:45.246Z,1005.82
2023-01-19T00:20:12.577Z,1005.82
2023-01-19T00:20:38.792Z,1005.72
2023-01-19T00:20:59.119Z,1005.72
2023-01-19T00:21:31.123Z,1005.72
2023-01-19T00:22:03.258Z,1005.72
2023-01-19T00:22:34.823Z,1005.72
2023-01-19T00:23:07.941Z,1005.52
2023-01-19T00:23:38.918Z,1005.52
2023-01-19T00:24:11.441Z,1005.72
2023-01-19T00:24:38.457Z,1005.82
2023-01-19T00:24:58.965Z,1005.82
2023-01-19T00:25:31.051Z,1005.82
2023-01-19T00:26:04.894Z,1005.52
2023-01-19T00:26:35.279Z,1005.52
2023-01-19T00:27:07.212Z,1005.72
2023-01-19T00:27:25.602Z,1005.72
2023-01-19T00:27:44.131Z,1005.82
2023-01-19T00:28:12.085Z,1005.82
2023-01-19T00:28:38.478Z,1005.82
2023-01-19T00:28:58.837Z,1005.82
2023-01-19T00:29:30.669Z,1005.82
2023-01-19T00:30:06.092Z,1005.72
2023-01-19T00:30:35.916Z,1005.72
2023-01-19T00:31:06.629Z,1005.62
2023-01-19T00:31:38.772Z,1005.62
2023-01-19T00:32:11.764Z,1005.52
2023-01-19T00:32:38.527Z,1005.72
2023-01-19T00:32:59.071Z,1005.72
2023-01-19T00:33:31.405Z,1005.72
2023-01-19T00:34:03.738Z,1005.72
2023-01-19T00:34:35.633Z,1005.72
2023-01-19T00:35:07.593Z,1005.62
2023-01-19T00:35:38.949Z,1005.62
2023-01-19T00:36:10.499Z,1005.82
2023-01-19T00:36:37.766Z,1005.82
2023-01-19T00:36:58.912Z,1005.82
2023-01-19T00:37:31.084Z,1005.82
2023-01-19T00:38:03.575Z,1005.82
2023-01-19T00:38:35.302Z,1005.82
2023-01-19T00:39:09.580Z,1005.62
2023-01-19T00:39:39.753Z,1005.62
2023-01-19T00:40:11.777Z,1005.82
2023-01-19T00:40:37.603Z,1005.93
2023-01-19T00:41:00.477Z,1005.93
2023-01-19T00:41:31.357Z,1005.93
2023-01-19T00:42:03.887Z,1005.72
2023-01-19T00:42:35.224Z,1005.72
2023-01-19T00:43:06.479Z,1005.62
2023-01-19T00:43:24.067Z,1005.62
2023-01-19T00:43:43.932Z,1005.82
2023-01-19T00:44:10.278Z,1005.82
2023-01-19T00:44:37.199Z,1005.82
2023-01-19T00:44:58.185Z,1005.82
2023-01-19T00:45:31.421Z,1005.82
2023-01-19T00:46:03.395Z,1005.82
2023-01-19T00:46:34.904Z,1005.82
2023-01-19T00:47:06.051Z,1005.82
2023-01-19T00:47:23.104Z,1005.82
2023-01-19T00:47:43.858Z,1005.82
2023-01-19T00:48:10.477Z,1005.82
2023-01-19T00:48:37.786Z,1005.82
2023-01-19T00:48:58.740Z,1005.82
2023-01-19T00:49:31.404Z,1005.82
2023-01-19T00:50:06.527Z,1005.72
2023-01-19T00:50:34.552Z,1005.72
2023-01-19T00:51:06.176Z,1005.93
2023-01-19T00:51:23.358Z,1005.93
2023-01-19T00:51:43.690Z,1005.82
2023-01-19T00:52:10.459Z,1005.82
2023-01-19T00:52:37.198Z,1005.72
2023-01-19T00:52:58.713Z,1005.72
2023-01-19T00:53:30.473Z,1005.72
2023-01-19T00:54:03.313Z,1005.72
2023-01-19T00:54:35.453Z,1005.72
2023-01-19T00:55:06.965Z,1005.72
2023-01-19T00:55:23.495Z,1005.72
2023-01-19T00:55:44.104Z,1005.82
2023-01-19T00:56:11.050Z,1005.82
2023-01-19T00:56:37.154Z,1005.72
2023-01-19T00:56:58.326Z,1005.72
2023-01-19T00:57:30.325Z,1005.72
2023-01-19T00:58:03.456Z,1005.93
2023-01-19T00:58:34.351Z,1005.93
2023-01-19T00:59:06.303Z,1006.03
2023-01-19T00:59:24.057Z,1006.03
2023-01-19T00:59:43.640Z,1006.03
2023-01-19T01:00:11.859Z,1006.03
2023-01-19T01:00:37.768Z,1005.93
2023-01-19T01:00:59.362Z,1005.93
2023-01-19T01:01:45.296Z,1005.93
2023-01-19T01:02:04.187Z,1006.03
2023-01-19T01:02:34.558Z,1006.03
2023-01-19T01:03:09.616Z,1005.93
2023-01-19T01:03:45.465Z,1005.93
2023-01-19T01:04:10.641Z,1005.93
2023-01-19T01:04:37.326Z,1006.03
2023-01-19T01:04:58.803Z,1006.03
2023-01-19T01:05:31.309Z,1006.03
2023-01-19T01:06:03.910Z,1005.72
2023-01-19T01:06:35.322Z,1005.72
2023-01-19T01:07:07.499Z,1005.93
2023-01-19T01:07:40.396Z,1005.93
2023-01-19T01:08:10.455Z,1005.93
2023-01-19T01:08:38.074Z,1006.03
2023-01-19T01:09:00.483Z,1006.03
2023-01-19T01:09:30.712Z,1006.03
2023-01-19T01:10:04.574Z,1005.82
2023-01-19T01:10:34.457Z,1005.82
2023-01-19T01:11:06.334Z,1006.03
2023-01-19T01:11:24.167Z,1006.03
2023-01-19T01:11:45.324Z,1005.62
2023-01-19T01:12:10.323Z,1005.62
2023-01-19T01:12:37.292Z,1005.93
2023-01-19T01:12:58.594Z,1005.93
2023-01-19T01:13:30.654Z,1005.93
2023-01-19T01:14:04.156Z,1006.03
2023-01-19T01:14:36.405Z,1006.03
2023-01-19T01:15:08.219Z,1006.03
2023-01-19T01:15:38.565Z,1006.03
2023-01-19T01:16:11.677Z,1005.93
2023-01-19T01:16:40.016Z,1006.03
2023-01-19T01:16:58.708Z,1006.03
2023-01-19T01:17:32.291Z,1006.03
2023-01-19T01:18:04.160Z,1006.03
2023-01-19T01:18:34.630Z,1006.03
2023-01-19T01:19:06.449Z,1006.13
2023-01-19T01:19:24.805Z,1006.13
2023-01-19T01:19:44.637Z,1006.03
2023-01-19T01:20:11.296Z,1006.03
2023-01-19T01:20:38.199Z,1005.82
2023-01-19T01:20:58.733Z,1005.82
2023-01-19T01:21:31.453Z,1005.82
2023-01-19T01:22:04.878Z,1006.23
2023-01-19T01:22:35.317Z,1006.23
2023-01-19T01:23:06.393Z,1006.13
2023-01-19T01:23:25.508Z,1006.13
2023-01-19T01:23:44.365Z,1006.03
2023-01-19T01:24:10.436Z,1006.03
2023-01-19T01:24:37.510Z,1006.03
2023-01-19T01:24:58.199Z,1006.03
2023-01-19T01:25:31.450Z,1006.03
2023-01-19T01:26:03.340Z,1006.03
2023-01-19T01:26:34.385Z,1006.03
2023-01-19T01:27:06.196Z,1006.03
2023-01-19T01:27:23.325Z,1006.03
2023-01-19T01:27:43.771Z,1006.13
2023-01-19T01:28:10.434Z,1006.13
2023-01-19T01:28:37.321Z,1006.13
2023-01-19T01:28:58.417Z,1006.13
2023-01-19T01:29:30.359Z,1006.13
2023-01-19T01:30:19.869Z,1006.13
2023-01-19T01:30:40.371Z,1005.93
2023-01-19T01:31:06.344Z,1005.93
2023-01-19T01:31:23.231Z,1005.93
2023-01-19T01:31:43.650Z,1006.03
2023-01-19T01:32:10.677Z,1006.03
2023-01-19T01:32:37.354Z,1006.03
2023-01-19T01:32:58.660Z,1006.03
2023-01-19T01:33:40.773Z,1006.03
2023-01-19T01:34:03.421Z,1005.82
2023-01-19T01:34:34.888Z,1005.82
2023-01-19T01:35:07.217Z,1005.93
2023-01-19T01:35:40.928Z,1005.93
2023-01-19T01:36:11.479Z,1006.13
2023-01-19T01:36:38.401Z,1006.03
2023-01-19T01:37:01.812Z,1006.03
2023-01-19T01:37:30.877Z,1006.03
2023-01-19T01:38:03.332Z,1005.93
2023-01-19T01:38:35.073Z,1005.93
2023-01-19T01:39:07.188Z,1005.93
2023-01-19T01:39:39.343Z,1005.93
2023-01-19T01:40:11.010Z,1006.33
2023-01-19T01:40:37.678Z,1006.23
2023-01-19T01:40:58.514Z,1006.23
2023-01-19T01:41:30.510Z,1006.23
2023-01-19T01:42:04.191Z,1006.13
2023-01-19T01:42:34.693Z,1006.13
2023-01-19T01:43:06.536Z,1005.93
2023-01-19T01:43:39.818Z,1005.93
2023-01-19T01:44:12.257Z,1006.03
2023-01-19T01:44:39.310Z,1006.13
2023-01-19T01:44:59.493Z,1006.13
2023-01-19T01:45:32.122Z,1006.13
2023-01-19T01:46:04.025Z,1006.23
2023-01-19T01:46:34.459Z,1006.23
2023-01-19T01:47:06.741Z,1006.03
2023-01-19T01:47:38.893Z,1006.03
2023-01-19T01:48:10.674Z,1006.23
2023-01-19T01:48:38.148Z,1006.23
2023-01-19T01:48:58.238Z,1006.23
2023-01-19T01:49:30.456Z,1006.23
2023-01-19T01:50:05.204Z,1006.13
2023-01-19T01:50:35.819Z,1006.13
2023-01-19T01:51:06.508Z,1006.13
2023-01-19T01:51:23.794Z,1006.13
2023-01-19T01:51:44.545Z,1006.23
2023-01-19T01:52:10.953Z,1006.23
2023-01-19T01:52:37.486Z,1006.23
2023-01-19T01:53:05.991Z,1006.23
2023-01-19T01:53:31.260Z,1006.23
2023-01-19T01:54:03.552Z,1006.13
2023-01-19T01:54:36.112Z,1006.13
2023-01-19T01:55:07.204Z,1006.33
2023-01-19T01:55:23.668Z,1006.33
2023-01-19T01:55:45.285Z,1006.13
2023-01-19T01:56:11.734Z,1006.13
2023-01-19T01:56:37.518Z,1006.23
2023-01-19T01:56:59.168Z,1006.23
2023-01-19T01:57:30.936Z,1006.23
2023-01-19T01:58:03.466Z,1006.23
2023-01-19T01:58:35.398Z,1006.23
2023-01-19T01:59:07.429Z,1006.33
2023-01-19T01:59:40.864Z,1006.33
2023-01-19T02:00:12.830Z,1006.23
2023-01-19T02:00:37.281Z,1006.23
2023-01-19T02:00:59.169Z,1006.23
2023-01-19T02:01:30.579Z,1006.23
2023-01-19T02:02:03.560Z,1006.23
2023-01-19T02:02:34.447Z,1006.23
2023-01-19T02:03:06.317Z,1006.03
2023-01-19T02:03:23.669Z,1006.03
2023-01-19T02:03:43.631Z,1006.13
2023-01-19T02:04:10.379Z,1006.13
2023-01-19T02:04:38.517Z,1006.03
2023-01-19T02:04:59.528Z,1006.03
2023-01-19T02:05:32.589Z,1006.03
2023-01-19T02:06:03.306Z,1006.23
2023-01-19T02:06:34.778Z,1006.23
2023-01-19T02:07:06.320Z,1006.13
2023-01-19T02:07:23.449Z,1006.13
2023-01-19T02:07:43.893Z,1006.23
2023-01-19T02:08:10.629Z,1006.23
2023-01-19T02:08:37.319Z,1006.03
2023-01-19T02:08:58.296Z,1006.03
2023-01-19T02:09:30.461Z,1006.03
2023-01-19T02:10:04.529Z,1006.23
2023-01-19T02:10:34.331Z,1006.23
2023-01-19T02:11:06.514Z,1006.13
2023-01-19T02:11:23.159Z,1006.13
2023-01-19T02:11:43.625Z,1006.13
2023-01-19T02:12:10.734Z,1006.13
2023-01-19T02:12:37.139Z,1006.13
2023-01-19T02:12:58.700Z,1006.13
2023-01-19T02:13:30.441Z,1006.13
2023-01-19T02:14:03.193Z,1006.33
2023-01-19T02:14:34.384Z,1006.33
2023-01-19T02:15:07.557Z,1006.23
2023-01-19T02:15:25.058Z,1006.23
2023-01-19T02:15:44.651Z,1006.23
2023-01-19T02:16:11.022Z,1006.23
2023-01-19T02:16:37.928Z,1006.23
2023-01-19T02:16:59.727Z,1006.23
2023-01-19T02:17:30.572Z,1006.23
2023-01-19T02:18:03.920Z,1006.13
2023-01-19T02:18:35.898Z,1006.13
2023-01-19T02:19:06.215Z,1006.23
2023-01-19T02:19:23.369Z,1006.23
2023-01-19T02:19:43.629Z,1006.13
2023-01-19T02:20:11.402Z,1006.13
2023-01-19T02:20:37.762Z,1006.23
2023-01-19T02:20:58.673Z,1006.23
2023-01-19T02:21:30.798Z,1006.23
2023-01-19T02:22:12.855Z,1006.23
2023-01-19T02:22:34.870Z,1006.23
2023-01-19T02:23:06.360Z,1006.03
2023-01-19T02:23:23.283Z,1006.03
2023-01-19T02:23:43.677Z,1006.13
2023-01-19T02:24:11.495Z,1006.13
2023-01-19T02:24:37.300Z,1006.33
2023-01-19T02:24:58.288Z,1006.33
2023-01-19T02:25:31.022Z,1006.33
2023-01-19T02:26:03.273Z,1006.33
2023-01-19T02:26:34.388Z,1006.33
2023-01-19T02:27:07.658Z,1006.23
2023-01-19T02:27:38.400Z,1006.23
2023-01-19T02:28:10.852Z,1006.23
2023-01-19T02:28:37.401Z,1005.93
2023-01-19T02:28:58.787Z,1005.93
2023-01-19T02:29:30.528Z,1005.93
2023-01-19T02:30:05.583Z,1006.13
2023-01-19T02:30:34.784Z,1006.13
2023-01-19T02:31:06.686Z,1006.03
2023-01-19T02:31:23.411Z,1006.03
2023-01-19T02:31:44.451Z,1006.33
2023-01-19T02:32:12.299Z,1006.33
2023-01-19T02:32:38.005Z,1006.23
2023-01-19T02:33:00.490Z,1006.23
2023-01-19T02:33:32.140Z,1006.23
2023-01-19T02:34:04.692Z,1006.23
2023-01-19T02:34:35.955Z,1006.23
2023-01-19T02:35:09.358Z,1006.23
2023-01-19T02:35:25.103Z,1006.23
2023-01-19T02:35:45.322Z,1006.13
2023-01-19T02:36:12.118Z,1006.13
2023-01-19T02:36:38.396Z,1006.13
2023-01-19T02:37:00.150Z,1006.13
2023-01-19T02:37:31.776Z,1006.13
2023-01-19T02:38:05.315Z,1006.13
2023-01-19T02:38:35.459Z,1006.13
2023-01-19T02:39:07.768Z,1006.13
2023-01-19T02:39:25.225Z,1006.13
2023-01-19T02:39:45.060Z,1006.23
2023-01-19T02:40:11.752Z,1006.23
2023-01-19T02:40:39.320Z,1006.43
2023-01-19T02:41:00.448Z,1006.43
2023-01-19T02:41:32.281Z,1006.43
2023-01-19T02:42:06.167Z,1006.23
2023-01-19T02:42:35.859Z,1006.23
2023-01-19T02:43:09.443Z,1006.13
2023-01-19T02:43:39.824Z,1006.13
2023-01-19T02:44:11.669Z,1006.23
2023-01-19T02:44:39.954Z,1006.13
2023-01-19T02:44:59.952Z,1006.13
2023-01-19T02:45:33.687Z,1006.13
2023-01-19T02:46:05.917Z,1006.13
2023-01-19T02:46:37.692Z,1006.13
2023-01-19T02:47:08.130Z,1006.13
2023-01-19T02:47:25.375Z,1006.13
2023-01-19T02:47:45.205Z,1006.13
2023-01-19T02:48:13.360Z,1006.13
2023-01-19T02:48:38.559Z,1006.23
2023-01-19T02:49:14.457Z,1006.23
2023-01-19T02:49:32.554Z,1006.23
2023-01-19T02:50:06.529Z,1005.93
2023-01-19T02:50:36.997Z,1005.93
2023-01-19T02:51:07.185Z,1006.03
2023-01-19T02:51:24.248Z,1006.03
2023-01-19T02:51:45.605Z,1006.33
2023-01-19T02:52:12.427Z,1006.33
2023-01-19T02:52:38.121Z,1006.23
2023-01-19T02:52:59.615Z,1006.23
2023-01-19T02:53:31.549Z,1006.23
2023-01-19T02:54:04.253Z,1006.13
2023-01-19T02:54:35.344Z,1006.13
2023-01-19T02:55:12.907Z,1006.23
2023-01-19T02:55:39.112Z,1006.23
2023-01-19T02:56:11.746Z,1006.33
2023-01-19T02:56:38.839Z,1006.13
2023-01-19T02:57:00.907Z,1006.13
2023-01-19T02:57:31.735Z,1006.13
2023-01-19T02:58:04.251Z,1006.43
2023-01-19T02:58:35.570Z,1006.43
2023-01-19T02:59:08.991Z,1006.23
2023-01-19T02:59:42.076Z,1006.23
2023-01-19T03:00:14.447Z,1006.23
2023-01-19T03:00:40.921Z,1006.33
2023-01-19T03:01:01.985Z,1006.33
2023-01-19T03:01:33.227Z,1006.33
2023-01-19T03:02:05.365Z,1006.13
2023-01-19T03:02:35.914Z,1006.13
2023-01-19T03:03:09.478Z,1006.23
2023-01-19T03:03:41.303Z,1006.23
2023-01-19T03:04:14.385Z,1006.13
2023-01-19T03:04:37.850Z,1006.23
2023-01-19T03:04:59.361Z,1006.23
2023-01-19T03:05:32.366Z,1006.23
2023-01-19T03:06:04.310Z,1006.23
2023-01-19T03:06:35.463Z,1006.23
2023-01-19T03:07:07.603Z,1006.13
2023-01-19T03:07:24.596Z,1006.13
2023-01-19T03:07:44.824Z,1006.13
2023-01-19T03:08:12.257Z,1006.13
2023-01-19T03:08:37.817Z,1006.33
2023-01-19T03:08:59.338Z,1006.33
2023-01-19T03:09:31.019Z,1006.33
2023-01-19T03:10:06.904Z,1006.13
2023-01-19T03:10:35.507Z,1006.13
2023-01-19T03:11:08.073Z,1006.03
2023-01-19T03:11:27.279Z,1006.03
2023-01-19T03:11:45.697Z,1006.33
2023-01-19T03:12:12.394Z,1006.33
2023-01-19T03:12:39.056Z,1006.33
2023-01-19T03:13:00.060Z,1006.33
2023-01-19T03:13:32.255Z,1006.33
2023-01-19T03:14:04.865Z,1006.23
2023-01-19T03:14:37.008Z,1006.23
2023-01-19T03:15:08.673Z,1006.03
2023-01-19T03:15:40.842Z,1006.03
2023-01-19T03:16:12.483Z,1006.03
2023-01-19T03:16:38.622Z,1006.23
2023-01-19T03:17:00.260Z,1006.23
2023-01-19T03:17:31.836Z,1006.23
2023-01-19T03:18:05.179Z,1006.03
2023-01-19T03:18:35.547Z,1006.03
2023-01-19T03:19:07.615Z,1006.13
2023-01-19T03:19:24.279Z,1006.13
2023-01-19T03:19:45.501Z,1006.33
2023-01-19T03:20:12.782Z,1006.33
2023-01-19T03:20:39.149Z,1006.33
2023-01-19T03:21:00.792Z,1006.33
2023-01-19T03:21:32.258Z,1006.33
2023-01-19T03:22:04.511Z,1006.13
2023-01-19T03:22:35.702Z,1006.13
2023-01-19T03:23:07.954Z,1006.13
2023-01-19T03:23:24.289Z,1006.13
2023-01-19T03:23:45.654Z,1006.33
2023-01-19T03:24:11.729Z,1006.33
2023-01-19T03:24:38.161Z,1006.13
2023-01-19T03:24:59.163Z,1006.13
2023-01-19T03:25:32.401Z,1006.13
2023-01-19T03:26:04.691Z,1006.33
2023-01-19T03:26:36.272Z,1006.33
2023-01-19T03:27:07.803Z,1006.13
2023-01-19T03:27:23.731Z,1006.13
2023-01-19T03:27:44.700Z,1006.13
2023-01-19T03:28:11.985Z,1006.13
2023-01-19T03:28:38.551Z,1006.13
2023-01-19T03:28:59.054Z,1006.13
2023-01-19T03:29:31.535Z,1006.13
2023-01-19T03:30:06.950Z,1006.13
2023-01-19T03:30:35.897Z,1006.13
2023-01-19T03:31:07.945Z,1006.03
2023-01-19T03:31:24.714Z,1006.03
2023-01-19T03:31:45.359Z,1006.33
2023-01-19T03:32:12.191Z,1006.33
2023-01-19T03:32:38.053Z,1006.13
2023-01-19T03:33:00.602Z,1006.13
2023-01-19T03:33:31.487Z,1006.13
2023-01-19T03:34:05.064Z,1006.23
2023-01-19T03:34:35.940Z,1006.23
2023-01-19T03:35:10.374Z,1006.23
2023-01-19T03:35:39.886Z,1006.23
2023-01-19T03:36:11.915Z,1006.23
2023-01-19T03:36:38.435Z,1006.03
2023-01-19T03:37:00.232Z,1006.03
2023-01-19T03:37:32.244Z,1006.03
2023-01-19T03:38:04.777Z,1006.03
2023-01-19T03:38:36.502Z,1006.03
2023-01-19T03:39:07.852Z,1006.23
2023-01-19T03:39:24.504Z,1006.23
2023-01-19T03:39:46.469Z,1006.13
2023-01-19T03:40:13.372Z,1006.13
2023-01-19T03:40:37.933Z,1006.13
2023-01-19T03:41:00.517Z,1006.13
2023-01-19T03:41:31.657Z,1006.13
2023-01-19T03:42:04.492Z,1006.23
2023-01-19T03:42:35.389Z,1006.23
2023-01-19T03:43:07.602Z,1006.23
2023-01-19T03:43:24.893Z,1006.23
2023-01-19T03:43:45.643Z,1006.33
2023-01-19T03:44:11.608Z,1006.33
2023-01-19T03:44:37.948Z,1006.23
2023-01-19T03:44:59.404Z,1006.23
2023-01-19T03:45:31.910Z,1006.23
2023-01-19T03:46:03.884Z,1006.23
2023-01-19T03:46:35.063Z,1006.23
2023-01-19T03:47:07.966Z,1006.23
2023-01-19T03:47:23.956Z,1006.23
2023-01-19T03:47:45.187Z,1006.13
2023-01-19T03:48:10.599Z,1006.13
2023-01-19T03:48:38.069Z,1006.03
2023-01-19T03:49:00.268Z,1006.03
2023-01-19T03:49:30.631Z,1006.03
2023-01-19T03:50:04.463Z,1006.33
2023-01-19T03:50:35.920Z,1006.33
2023-01-19T03:51:06.897Z,1006.03
2023-01-19T03:51:23.512Z,1006.03
2023-01-19T03:51:44.659Z,1006.33
2023-01-19T03:52:10.833Z,1006.33
2023-01-19T03:52:38.131Z,1006.13
2023-01-19T03:53:10.029Z,1006.13
2023-01-19T03:53:31.268Z,1006.13
2023-01-19T03:54:03.499Z,1006.33
2023-01-19T03:54:35.034Z,1006.33
2023-01-19T03:55:07.519Z,1006.23
2023-01-19T03:55:38.981Z,1006.23
2023-01-19T03:56:12.374Z,1006.23
2023-01-19T03:56:39.583Z,1006.33
2023-01-19T03:56:58.859Z,1006.33
2023-01-19T03:57:32.683Z,1006.33
2023-01-19T03:58:04.437Z,1006.13
2023-01-19T03:58:34.772Z,1006.13
2023-01-19T03:59:06.704Z,1006.23
2023-01-19T03:59:23.126Z,1006.23
2023-01-19T03:59:45.066Z,1006.13
2023-01-19T04:00:13.452Z,1006.13
2023-01-19T04:00:38.713Z,1006.13
2023-01-19T04:00:59.644Z,1006.13
2023-01-19T04:01:32.077Z,1006.13
2023-01-19T04:02:04.750Z,1006.33
2023-01-19T04:02:35.362Z,1006.33
2023-01-19T04:03:07.199Z,1006.33
2023-01-19T04:03:38.543Z,1006.33
2023-01-19T04:04:10.712Z,1006.23
2023-01-19T04:04:37.204Z,1006.33
2023-01-19T04:04:59.100Z,1006.33
2023-01-19T04:05:31.295Z,1006.33
2023-01-19T04:06:06.103Z,1006.23
2023-01-19T04:06:34.586Z,1006.23
2023-01-19T04:07:06.329Z,1006.23
2023-01-19T04:07:23.213Z,1006.23
2023-01-19T04:07:44.239Z,1006.33
2023-01-19T04:08:11.341Z,1006.33
2023-01-19T04:08:37.186Z,1006.33
2023-01-19T04:08:58.928Z,1006.33
2023-01-19T04:09:30.632Z,1006.33
2023-01-19T04:10:04.816Z,1006.13
2023-01-19T04:10:34.647Z,1006.13
2023-01-19T04:11:06.616Z,1006.13
2023-01-19T04:11:23.332Z,1006.13
2023-01-19T04:11:44.512Z,1006.23
2023-01-19T04:12:11.265Z,1006.23
2023-01-19T04:12:37.329Z,1006.13
2023-01-19T04:12:59.605Z,1006.13
2023-01-19T04:13:30.605Z,1006.13
2023-01-19T04:14:03.591Z,1006.23
2023-01-19T04:14:34.766Z,1006.23
2023-01-19T04:15:11.762Z,1006.33
2023-01-19T04:15:38.881Z,1006.33
2023-01-19T04:16:11.397Z,1006.13
2023-01-19T04:16:37.985Z,1006.23
2023-01-19T04:16:58.856Z,1006.23
2023-01-19T04:17:30.991Z,1006.23
2023-01-19T04:18:04.485Z,1006.23
2023-01-19T04:18:35.506Z,1006.23
2023-01-19T04:19:07.412Z,1006.13
2023-01-19T04:19:38.764Z,1006.13
2023-01-19T04:20:11.879Z,1006.03
2023-01-19T04:20:37.544Z,1006.53
2023-01-19T04:21:00.206Z,1006.53
2023-01-19T04:21:31.013Z,1006.53
2023-01-19T04:22:04.270Z,1006.33
2023-01-19T04:22:34.967Z,1006.33
2023-01-19T04:23:07.153Z,1006.23
2023-01-19T04:23:40.372Z,1006.23
2023-01-19T04:24:11.752Z,1006.03
2023-01-19T04:24:38.412Z,1006.33
2023-01-19T04:24:58.953Z,1006.33
2023-01-19T04:25:32.888Z,1006.33
2023-01-19T04:26:04.297Z,1006.23
2023-01-19T04:26:35.296Z,1006.23
2023-01-19T04:27:06.898Z,1006.43
2023-01-19T04:27:23.740Z,1006.43
2023-01-19T04:27:45.012Z,1006.43
2023-01-19T04:28:12.435Z,1006.43
2023-01-19T04:28:38.441Z,1006.23
2023-01-19T04:29:00.184Z,1006.23
2023-01-19T04:29:31.038Z,1006.23
2023-01-19T04:30:07.524Z,1006.33
2023-01-19T04:30:35.318Z,1006.33
2023-01-19T04:31:06.883Z,1006.43
2023-01-19T04:31:39.459Z,1006.43
2023-01-19T04:32:11.305Z,1006.23
2023-01-19T04:32:38.255Z,1006.33
2023-01-19T04:32:59.719Z,1006.33
2023-01-19T04:33:31.231Z,1006.33
2023-01-19T04:34:04.468Z,1006.43
2023-01-19T04:34:35.502Z,1006.43
2023-01-19T04:35:07.767Z,1006.33
2023-01-19T04:35:38.726Z,1006.33
2023-01-19T04:36:10.927Z,1006.53
2023-01-19T04:36:38.157Z,1006.33
2023-01-19T04:36:59.268Z,1006.33
2023-01-19T04:37:31.124Z,1006.33
2023-01-19T04:38:03.616Z,1006.53
2023-01-19T04:38:36.061Z,1006.53
2023-01-19T04:39:07.295Z,1006.33
2023-01-19T04:39:38.500Z,1006.33
2023-01-19T04:40:11.617Z,1006.53
2023-01-19T04:40:38.607Z,1006.33
2023-01-19T04:40:59.526Z,1006.33
2023-01-19T04:41:31.193Z,1006.33
2023-01-19T04:42:03.574Z,1006.43
2023-01-19T04:42:35.072Z,1006.43
2023-01-19T04:43:07.385Z,1006.23
2023-01-19T04:43:39.154Z,1006.23
2023-01-19T04:44:11.294Z,1006.23
2023-01-19T04:44:38.022Z,1006.23
2023-01-19T04:45:02.247Z,1006.23
2023-01-19T04:45:30.833Z,1006.23
2023-01-19T04:46:03.653Z,1006.13
2023-01-19T04:46:35.136Z,1006.13
2023-01-19T04:47:06.790Z,1006.33
2023-01-19T04:47:23.390Z,1006.33
2023-01-19T04:47:44.335Z,1006.43
2023-01-19T04:48:10.841Z,1006.43
2023-01-19T04:48:37.180Z,1006.33
2023-01-19T04:48:58.550Z,1006.33
2023-01-19T04:49:30.668Z,1006.33
2023-01-19T04:50:04.829Z,1006.43
2023-01-19T04:50:34.748Z,1006.43
2023-01-19T04:51:06.533Z,1006.23
2023-01-19T04:51:23.563Z,1006.23
2023-01-19T04:51:45.083Z,1006.33
2023-01-19T04:52:11.518Z,1006.33
2023-01-19T04:52:37.217Z,1006.43
2023-01-19T04:52:58.857Z,1006.43
2023-01-19T04:53:30.708Z,1006.43
2023-01-19T04:54:03.751Z,1006.23
2023-01-19T04:54:34.570Z,1006.23
2023-01-19T04:55:07.103Z,1006.33
2023-01-19T04:55:23.322Z,1006.33
2023-01-19T04:55:44.616Z,1006.53
2023-01-19T04:56:10.856Z,1006.53
2023-01-19T04:56:37.279Z,1006.23
2023-01-19T04:56:58.690Z,1006.23
2023-01-19T04:57:32.264Z,1006.23
2023-01-19T04:58:04.977Z,1006.43
2023-01-19T04:58:34.793Z,1006.43
2023-01-19T04:59:07.142Z,1006.53
2023-01-19T04:59:38.570Z,1006.53
2023-01-19T05:00:13.142Z,1006.43
2023-01-19T05:00:37.250Z,1006.43
2023-01-19T05:00:59.603Z,1006.43
2023-01-19T05:01:30.781Z,1006.43
2023-01-19T05:02:03.785Z,1006.23
2023-01-19T05:02:34.842Z,1006.23
2023-01-19T05:03:06.567Z,1006.53
2023-01-19T05:03:25.711Z,1006.53
2023-01-19T05:03:44.427Z,1006.43
2023-01-19T05:04:10.872Z,1006.43
2023-01-19T05:04:37.941Z,1006.43
2023-01-19T05:04:58.692Z,1006.43
2023-01-19T05:05:33.016Z,1006.43
2023-01-19T05:06:04.422Z,1006.43
2023-01-19T05:06:36.293Z,1006.43
2023-01-19T05:07:07.866Z,1006.43
2023-01-19T05:07:38.723Z,1006.43
2023-01-19T05:08:11.020Z,1006.23
2023-01-19T05:08:37.127Z,1006.43
2023-01-19T05:08:58.643Z,1006.43
2023-01-19T05:09:30.692Z,1006.43
2023-01-19T05:10:04.666Z,1006.53
2023-01-19T05:10:35.900Z,1006.53
2023-01-19T05:11:06.620Z,1006.23
2023-01-19T05:11:23.286Z,1006.23
2023-01-19T05:11:44.314Z,1006.43
2023-01-19T05:12:10.745Z,1006.43
2023-01-19T05:12:41.465Z,1006.64
2023-01-19T05:12:58.965Z,1006.64
2023-01-19T05:13:30.755Z,1006.64
2023-01-19T05:14:03.404Z,1006.53
2023-01-19T05:14:35.127Z,1006.53
2023-01-19T05:15:09.579Z,1006.74
2023-01-19T05:15:41.300Z,1006.74
2023-01-19T05:16:11.188Z,1006.53
2023-01-19T05:16:38.136Z,1006.64
2023-01-19T05:16:58.863Z,1006.64
2023-01-19T05:17:30.851Z,1006.64
2023-01-19T05:18:03.465Z,1006.53
2023-01-19T05:18:34.666Z,1006.53
2023-01-19T05:19:08.659Z,1006.43
2023-01-19T05:19:39.783Z,1006.43
2023-01-19T05:20:12.907Z,1006.74
2023-01-19T05:20:37.981Z,1006.33
2023-01-19T05:21:00.122Z,1006.33
2023-01-19T05:21:31.206Z,1006.33
2023-01-19T05:22:04.482Z,1006.33
2023-01-19T05:22:36.013Z,1006.33
2023-01-19T05:23:07.507Z,1006.43
2023-01-19T05:23:38.957Z,1006.43
2023-01-19T05:24:12.108Z,1006.64
2023-01-19T05:24:37.673Z,1006.53
2023-01-19T05:24:58.926Z,1006.53
2023-01-19T05:25:31.742Z,1006.53
2023-01-19T05:26:04.409Z,1006.33
2023-01-19T05:26:34.759Z,1006.33
2023-01-19T05:27:06.638Z,1006.43
2023-01-19T05:27:27.353Z,1006.43
2023-01-19T05:27:44.689Z,1006.43
2023-01-19T05:28:11.628Z,1006.43
2023-01-19T05:28:37.278Z,1006.33
2023-01-19T05:28:58.663Z,1006.33
2023-01-19T05:29:31.177Z,1006.33
2023-01-19T05:30:05.529Z,1006.43
2023-01-19T05:30:34.855Z,1006.43
2023-01-19T05:31:06.695Z,1006.53
2023-01-19T05:31:25.437Z,1006.53
2023-01-19T05:31:44.695Z,1006.74
2023-01-19T05:32:11.967Z,1006.74
2023-01-19T05:32:37.882Z,1006.53
2023-01-19T05:32:59.955Z,1006.53
2023-01-19T05:33:30.867Z,1006.53
2023-01-19T05:34:03.884Z,1006.74
2023-01-19T05:34:35.524Z,1006.74
2023-01-19T05:35:08.055Z,1006.43
2023-01-19T05:35:39.716Z,1006.43
2023-01-19T05:36:11.253Z,1006.74
2023-01-19T05:36:38.067Z,1006.74
2023-01-19T05:37:00.718Z,1006.74
2023-01-19T05:37:30.836Z,1006.74
2023-01-19T05:38:03.259Z,1006.53
2023-01-19T05:38:36.003Z,1006.53
2023-01-19T05:39:06.598Z,1006.64
2023-01-19T05:39:23.240Z,1006.64